sensor_id;sensor_type;location;lat;lon;timestamp;P1;durP1;ratioP1;P2;durP2;ratioP2
24301;SDS011;12421;49.732;20.078;2024-02-21T00:01:05;5.20;;;2.80;;
24301;SDS011;12421;49.732;20.078;2024-02-21T00:11:20;7.00;;;3.20;;
24301;SDS011;12421;49.732;20.078;2024-02-21T00:21:24;5.40;;;2.80;;
24301;SDS011;12421;49.732;20.078;2024-02-21T00:31:27;5.50;;;2.80;;
24301;SDS011;12421;49.732;20.078;2024-02-21T00:41:31;5.40;;;2.80;;
24301;SDS011;12421;49.732;20.078;2024-02-21T00:51:34;6.40;;;3.20;;
24301;SDS011;12421;49.732;20.078;2024-02-21T01:01:37;6.80;;;3.50;;
24301;SDS011;12421;49.732;20.078;2024-02-21T01:11:41;5.30;;;3.50;;
24301;SDS011;12421;49.732;20.078;2024-02-21T01:21:44;8.50;;;4.80;;
24301;SDS011;12421;49.732;20.078;2024-02-21T01:31:48;6.70;;;4.60;;
24301;SDS011;12421;49.732;20.078;2024-02-21T01:41:51;13.90;;;4.70;;
24301;SDS011;12421;49.732;20.078;2024-02-21T01:51:55;10.10;;;5.80;;
24301;SDS011;12421;49.732;20.078;2024-02-21T02:01:59;10.00;;;5.30;;
24301;SDS011;12421;49.732;20.078;2024-02-21T02:12:04;9.20;;;5.00;;
24301;SDS011;12421;49.732;20.078;2024-02-21T02:22:09;10.80;;;6.30;;
24301;SDS011;12421;49.732;20.078;2024-02-21T02:32:20;11.50;;;6.10;;
24301;SDS011;12421;49.732;20.078;2024-02-21T02:42:23;14.00;;;6.50;;
24301;SDS011;12421;49.732;20.078;2024-02-21T02:52:27;12.00;;;5.50;;
24301;SDS011;12421;49.732;20.078;2024-02-21T03:02:30;12.30;;;5.70;;
24301;SDS011;12421;49.732;20.078;2024-02-21T03:12:34;11.90;;;6.10;;
24301;SDS011;12421;49.732;20.078;2024-02-21T03:22:37;9.70;;;6.10;;
24301;SDS011;12421;49.732;20.078;2024-02-21T03:32:41;13.30;;;7.40;;
24301;SDS011;12421;49.732;20.078;2024-02-21T03:42:44;9.70;;;5.20;;
24301;SDS011;12421;49.732;20.078;2024-02-21T03:52:47;10.80;;;6.50;;
24301;SDS011;12421;49.732;20.078;2024-02-21T04:02:51;10.80;;;5.00;;
24301;SDS011;12421;49.732;20.078;2024-02-21T04:12:54;10.30;;;5.50;;
24301;SDS011;12421;49.732;20.078;2024-02-21T04:22:58;9.30;;;5.50;;
24301;SDS011;12421;49.732;20.078;2024-02-21T04:33:02;9.40;;;5.00;;
24301;SDS011;12421;49.732;20.078;2024-02-21T04:43:05;8.10;;;4.90;;
24301;SDS011;12421;49.732;20.078;2024-02-21T04:53:08;7.70;;;5.00;;
24301;SDS011;12421;49.732;20.078;2024-02-21T05:03:12;8.80;;;5.80;;
24301;SDS011;12421;49.732;20.078;2024-02-21T05:13:15;9.30;;;5.50;;
24301;SDS011;12421;49.732;20.078;2024-02-21T05:23:18;10.30;;;5.70;;
24301;SDS011;12421;49.732;20.078;2024-02-21T05:33:22;8.20;;;5.10;;
24301;SDS011;12421;49.732;20.078;2024-02-21T05:43:25;9.90;;;5.60;;
24301;SDS011;12421;49.732;20.078;2024-02-21T05:53:29;9.60;;;5.20;;
24301;SDS011;12421;49.732;20.078;2024-02-21T06:03:32;12.20;;;8.20;;
24301;SDS011;12421;49.732;20.078;2024-02-21T06:13:38;12.00;;;9.20;;
24301;SDS011;12421;49.732;20.078;2024-02-21T06:23:42;13.70;;;7.80;;
24301;SDS011;12421;49.732;20.078;2024-02-21T06:33:46;16.00;;;9.70;;
24301;SDS011;12421;49.732;20.078;2024-02-21T06:43:50;15.90;;;10.30;;
24301;SDS011;12421;49.732;20.078;2024-02-21T06:53:54;14.40;;;9.60;;
24301;SDS011;12421;49.732;20.078;2024-02-21T07:03:57;15.70;;;10.60;;
24301;SDS011;12421;49.732;20.078;2024-02-21T07:14:00;15.80;;;10.40;;
24301;SDS011;12421;49.732;20.078;2024-02-21T07:24:04;17.20;;;9.70;;
24301;SDS011;12421;49.732;20.078;2024-02-21T07:34:08;17.50;;;9.70;;
24301;SDS011;12421;49.732;20.078;2024-02-21T07:44:12;15.40;;;9.80;;
24301;SDS011;12421;49.732;20.078;2024-02-21T07:54:15;15.40;;;8.20;;
24301;SDS011;12421;49.732;20.078;2024-02-21T08:04:21;12.50;;;6.40;;
24301;SDS011;12421;49.732;20.078;2024-02-21T08:14:25;11.90;;;5.80;;
24301;SDS011;12421;49.732;20.078;2024-02-21T08:24:28;9.40;;;4.40;;
24301;SDS011;12421;49.732;20.078;2024-02-21T08:34:31;9.70;;;4.40;;
24301;SDS011;12421;49.732;20.078;2024-02-21T08:44:37;7.20;;;3.70;;
24301;SDS011;12421;49.732;20.078;2024-02-21T08:54:42;8.10;;;2.90;;
24301;SDS011;12421;49.732;20.078;2024-02-21T09:04:45;7.60;;;3.20;;
24301;SDS011;12421;49.732;20.078;2024-02-21T09:14:49;5.10;;;2.30;;
24301;SDS011;12421;49.732;20.078;2024-02-21T09:24:53;7.20;;;2.60;;
24301;SDS011;12421;49.732;20.078;2024-02-21T09:34:57;7.40;;;2.70;;
24301;SDS011;12421;49.732;20.078;2024-02-21T09:55:11;7.80;;;3.10;;
24301;SDS011;12421;49.732;20.078;2024-02-21T10:05:17;6.50;;;2.30;;
24301;SDS011;12421;49.732;20.078;2024-02-21T10:15:21;5.60;;;2.00;;
24301;SDS011;12421;49.732;20.078;2024-02-21T10:25:28;5.30;;;2.10;;
24301;SDS011;12421;49.732;20.078;2024-02-21T10:35:32;6.50;;;2.30;;
24301;SDS011;12421;49.732;20.078;2024-02-21T10:45:36;8.20;;;2.70;;
24301;SDS011;12421;49.732;20.078;2024-02-21T10:55:41;5.80;;;2.50;;
24301;SDS011;12421;49.732;20.078;2024-02-21T11:05:54;5.90;;;2.40;;
24301;SDS011;12421;49.732;20.078;2024-02-21T11:16:07;4.50;;;1.60;;
24301;SDS011;12421;49.732;20.078;2024-02-21T11:26:17;4.90;;;1.80;;
24301;SDS011;12421;49.732;20.078;2024-02-21T11:36:26;5.20;;;2.70;;
24301;SDS011;12421;49.732;20.078;2024-02-21T11:46:31;10.60;;;3.00;;
24301;SDS011;12421;49.732;20.078;2024-02-21T11:56:35;4.90;;;2.60;;
24301;SDS011;12421;49.732;20.078;2024-02-21T12:06:38;5.00;;;2.70;;
24301;SDS011;12421;49.732;20.078;2024-02-21T12:16:44;6.50;;;3.10;;
24301;SDS011;12421;49.732;20.078;2024-02-21T12:26:52;7.50;;;3.50;;
24301;SDS011;12421;49.732;20.078;2024-02-21T12:36:56;5.40;;;2.70;;
24301;SDS011;12421;49.732;20.078;2024-02-21T12:46:59;6.50;;;3.40;;
24301;SDS011;12421;49.732;20.078;2024-02-21T12:57:03;8.90;;;3.70;;
24301;SDS011;12421;49.732;20.078;2024-02-21T13:07:06;9.90;;;4.10;;
24301;SDS011;12421;49.732;20.078;2024-02-21T13:17:10;10.90;;;3.10;;
24301;SDS011;12421;49.732;20.078;2024-02-21T13:27:14;9.90;;;3.70;;
24301;SDS011;12421;49.732;20.078;2024-02-21T13:37:17;8.10;;;3.40;;
24301;SDS011;12421;49.732;20.078;2024-02-21T13:47:22;7.10;;;3.10;;
24301;SDS011;12421;49.732;20.078;2024-02-21T13:57:25;9.80;;;4.20;;
24301;SDS011;12421;49.732;20.078;2024-02-21T14:07:28;8.00;;;3.10;;
24301;SDS011;12421;49.732;20.078;2024-02-21T14:17:32;8.20;;;3.60;;
24301;SDS011;12421;49.732;20.078;2024-02-21T14:27:35;7.10;;;3.40;;
24301;SDS011;12421;49.732;20.078;2024-02-21T14:37:41;6.00;;;3.10;;
24301;SDS011;12421;49.732;20.078;2024-02-21T14:47:44;8.00;;;4.10;;
24301;SDS011;12421;49.732;20.078;2024-02-21T14:57:48;10.70;;;4.60;;
24301;SDS011;12421;49.732;20.078;2024-02-21T15:07:51;13.60;;;6.50;;
24301;SDS011;12421;49.732;20.078;2024-02-21T15:17:55;8.00;;;3.70;;
24301;SDS011;12421;49.732;20.078;2024-02-21T15:27:58;6.70;;;4.00;;
24301;SDS011;12421;49.732;20.078;2024-02-21T15:38:02;11.10;;;4.70;;
24301;SDS011;12421;49.732;20.078;2024-02-21T15:48:07;13.40;;;7.30;;
24301;SDS011;12421;49.732;20.078;2024-02-21T15:58:13;14.20;;;7.20;;
24301;SDS011;12421;49.732;20.078;2024-02-21T16:08:17;16.70;;;6.50;;
24301;SDS011;12421;49.732;20.078;2024-02-21T16:18:22;15.10;;;7.00;;
24301;SDS011;12421;49.732;20.078;2024-02-21T16:28:26;15.40;;;8.00;;
24301;SDS011;12421;49.732;20.078;2024-02-21T16:38:30;11.80;;;5.30;;
24301;SDS011;12421;49.732;20.078;2024-02-21T16:48:36;12.10;;;5.60;;
24301;SDS011;12421;49.732;20.078;2024-02-21T16:58:42;12.90;;;5.80;;
24301;SDS011;12421;49.732;20.078;2024-02-21T17:08:46;11.80;;;5.60;;
24301;SDS011;12421;49.732;20.078;2024-02-21T17:18:53;17.90;;;8.40;;
24301;SDS011;12421;49.732;20.078;2024-02-21T17:28:57;13.10;;;7.40;;
24301;SDS011;12421;49.732;20.078;2024-02-21T17:39:00;11.70;;;6.50;;
24301;SDS011;12421;49.732;20.078;2024-02-21T17:49:04;11.80;;;5.70;;
24301;SDS011;12421;49.732;20.078;2024-02-21T17:59:07;7.80;;;4.30;;
24301;SDS011;12421;49.732;20.078;2024-02-21T18:09:12;23.20;;;11.30;;
24301;SDS011;12421;49.732;20.078;2024-02-21T18:19:17;25.00;;;11.20;;
24301;SDS011;12421;49.732;20.078;2024-02-21T18:29:23;27.40;;;12.70;;
24301;SDS011;12421;49.732;20.078;2024-02-21T18:39:41;19.60;;;10.90;;
24301;SDS011;12421;49.732;20.078;2024-02-21T18:49:44;23.00;;;10.80;;
24301;SDS011;12421;49.732;20.078;2024-02-21T18:59:48;26.80;;;12.80;;
24301;SDS011;12421;49.732;20.078;2024-02-21T19:09:52;23.70;;;12.10;;
24301;SDS011;12421;49.732;20.078;2024-02-21T19:19:55;22.00;;;12.70;;
24301;SDS011;12421;49.732;20.078;2024-02-21T19:29:58;24.20;;;11.80;;
24301;SDS011;12421;49.732;20.078;2024-02-21T19:40:02;15.60;;;8.70;;
24301;SDS011;12421;49.732;20.078;2024-02-21T19:50:07;21.10;;;9.30;;
24301;SDS011;12421;49.732;20.078;2024-02-21T20:00:10;21.30;;;10.90;;
24301;SDS011;12421;49.732;20.078;2024-02-21T20:10:16;20.00;;;10.10;;
24301;SDS011;12421;49.732;20.078;2024-02-21T20:20:25;20.20;;;9.80;;
24301;SDS011;12421;49.732;20.078;2024-02-21T20:30:30;18.80;;;9.30;;
24301;SDS011;12421;49.732;20.078;2024-02-21T20:40:37;18.40;;;10.00;;
24301;SDS011;12421;49.732;20.078;2024-02-21T20:50:40;15.20;;;8.40;;
24301;SDS011;12421;49.732;20.078;2024-02-21T21:00:44;16.90;;;10.10;;
24301;SDS011;12421;49.732;20.078;2024-02-21T21:10:47;24.50;;;12.90;;
24301;SDS011;12421;49.732;20.078;2024-02-21T21:20:50;36.40;;;18.40;;
24301;SDS011;12421;49.732;20.078;2024-02-21T21:30:54;36.60;;;18.10;;
24301;SDS011;12421;49.732;20.078;2024-02-21T21:40:59;45.00;;;21.70;;
24301;SDS011;12421;49.732;20.078;2024-02-21T21:51:03;35.10;;;19.30;;
24301;SDS011;12421;49.732;20.078;2024-02-21T22:01:09;17.40;;;9.30;;
24301;SDS011;12421;49.732;20.078;2024-02-21T22:11:16;7.30;;;4.40;;
24301;SDS011;12421;49.732;20.078;2024-02-21T22:21:20;8.00;;;4.00;;
24301;SDS011;12421;49.732;20.078;2024-02-21T22:31:23;8.40;;;3.10;;
24301;SDS011;12421;49.732;20.078;2024-02-21T22:41:28;7.40;;;3.30;;
24301;SDS011;12421;49.732;20.078;2024-02-21T22:51:32;8.40;;;3.60;;
24301;SDS011;12421;49.732;20.078;2024-02-21T23:01:35;7.10;;;3.10;;
24301;SDS011;12421;49.732;20.078;2024-02-21T23:11:39;8.90;;;3.50;;
24301;SDS011;12421;49.732;20.078;2024-02-21T23:21:43;7.60;;;3.30;;
24301;SDS011;12421;49.732;20.078;2024-02-21T23:31:47;7.60;;;3.40;;
24301;SDS011;12421;49.732;20.078;2024-02-21T23:41:51;6.10;;;3.00;;
24301;SDS011;12421;49.732;20.078;2024-02-21T23:51:54;6.90;;;3.70;;
